createdAt,value
2023-04-06T00:01:16.724Z,6.63
2023-04-06T00:04:04.373Z,6.90
2023-04-06T00:06:51.857Z,5.77
2023-04-06T00:09:39.252Z,6.20
2023-04-06T00:12:26.645Z,6.77
2023-04-06T00:15:14.189Z,6.50
2023-04-06T00:18:01.947Z,6.10
2023-04-06T00:20:49.421Z,7.27
2023-04-06T00:23:36.930Z,5.67
2023-04-06T00:26:24.359Z,5.80
2023-04-06T00:29:11.772Z,6.37
2023-04-06T00:31:59.219Z,5.73
2023-04-06T00:34:46.733Z,6.30
2023-04-06T00:37:34.361Z,6.10
2023-04-06T00:40:21.747Z,6.50
2023-04-06T00:43:12.412Z,6.13
2023-04-06T00:45:59.822Z,6.40
2023-04-06T00:48:47.288Z,6.63
2023-04-06T00:51:34.695Z,6.40
2023-04-06T00:54:22.091Z,6.20
2023-04-06T00:57:09.601Z,5.83
2023-04-06T00:59:57.090Z,6.80
2023-04-06T01:02:46.150Z,5.97
2023-04-06T01:05:35.429Z,5.47
2023-04-06T01:08:22.843Z,5.83
2023-04-06T01:11:10.317Z,6.73
2023-04-06T01:13:57.665Z,5.77
2023-04-06T01:16:45.097Z,7.00
2023-04-06T01:19:32.456Z,7.30
2023-04-06T01:22:20.174Z,5.83
2023-04-06T01:25:07.973Z,7.77
2023-04-06T01:27:55.379Z,7.10
2023-04-06T01:30:42.839Z,6.80
2023-04-06T01:33:30.433Z,6.23
2023-04-06T01:36:17.991Z,5.50
2023-04-06T01:39:05.432Z,5.60
2023-04-06T01:41:52.840Z,5.30
2023-04-06T01:44:40.472Z,6.20
2023-04-06T01:47:28.022Z,5.00
2023-04-06T01:50:15.496Z,6.20
2023-04-06T01:53:02.920Z,5.37
2023-04-06T01:55:50.364Z,5.87
2023-04-06T01:58:37.752Z,5.63
2023-04-06T02:01:25.501Z,5.57
2023-04-06T02:04:14.545Z,5.37
2023-04-06T02:07:02.101Z,5.77
2023-04-06T02:09:49.619Z,5.40
2023-04-06T02:12:37.013Z,5.27
2023-04-06T02:15:24.524Z,6.30
2023-04-06T02:18:11.926Z,5.00
2023-04-06T02:20:59.323Z,5.23
2023-04-06T02:23:46.725Z,5.83
2023-04-06T02:26:34.100Z,5.47
2023-04-06T02:29:21.717Z,5.57
2023-04-06T02:32:09.250Z,5.40
2023-04-06T02:34:56.698Z,5.30
2023-04-06T02:37:44.144Z,6.43
2023-04-06T02:40:31.536Z,7.27
2023-04-06T02:43:19.009Z,6.20
2023-04-06T02:46:06.598Z,6.13
2023-04-06T02:48:54.115Z,5.67
2023-04-06T02:51:41.501Z,6.17
2023-04-06T02:54:28.878Z,6.30
2023-04-06T02:57:16.594Z,6.00
2023-04-06T03:00:04.166Z,5.20
2023-04-06T03:02:51.610Z,5.50
2023-04-06T03:05:39.123Z,6.00
2023-04-06T03:08:26.515Z,6.10
2023-04-06T03:11:14.096Z,6.23
2023-04-06T03:14:01.564Z,5.70
2023-04-06T03:16:49.805Z,5.73
2023-04-06T03:19:37.456Z,5.27
2023-04-06T03:22:24.849Z,6.00
2023-04-06T03:25:12.290Z,6.03
2023-04-06T03:27:59.657Z,5.83
2023-04-06T03:30:47.258Z,5.97
2023-04-06T03:33:34.657Z,5.63
2023-04-06T03:36:22.038Z,5.23
2023-04-06T03:39:09.561Z,5.37
2023-04-06T03:41:57.157Z,6.33
2023-04-06T03:44:44.590Z,6.40
2023-04-06T03:47:31.992Z,6.53
2023-04-06T03:50:19.500Z,7.13
2023-04-06T03:53:06.917Z,6.70
2023-04-06T03:55:54.309Z,8.97
2023-04-06T03:58:41.767Z,9.13
2023-04-06T04:01:29.244Z,8.60
2023-04-06T04:04:16.659Z,7.57
2023-04-06T04:07:04.108Z,7.17
2023-04-06T04:09:51.612Z,6.70
2023-04-06T04:12:39.005Z,7.43
2023-04-06T04:15:26.423Z,8.03
2023-04-06T04:18:13.819Z,7.97
2023-04-06T04:21:01.749Z,8.07
2023-04-06T04:23:49.227Z,8.50
2023-04-06T04:26:36.652Z,8.73
2023-04-06T04:29:24.451Z,9.03
2023-04-06T04:32:12.285Z,8.10
2023-04-06T04:34:59.767Z,8.20
2023-04-06T04:37:47.157Z,8.33
2023-04-06T04:40:34.512Z,8.87
2023-04-06T04:43:21.928Z,7.77
2023-04-06T04:46:09.378Z,8.57
2023-04-06T04:48:56.896Z,8.20
2023-04-06T04:51:44.255Z,8.53
2023-04-06T04:54:31.683Z,9.13
2023-04-06T04:57:19.256Z,8.47
2023-04-06T05:00:07.186Z,8.47
2023-04-06T05:02:54.680Z,8.40
2023-04-06T05:05:42.122Z,9.87
2023-04-06T05:08:29.568Z,9.83
2023-04-06T05:11:16.957Z,8.57
2023-04-06T05:14:04.406Z,8.53
2023-04-06T05:16:51.828Z,8.17
2023-04-06T05:19:39.418Z,8.10
2023-04-06T05:22:27.192Z,8.60
2023-04-06T05:25:15.026Z,8.97
2023-04-06T05:28:02.520Z,8.30
2023-04-06T05:30:50.203Z,8.40
2023-04-06T05:33:37.663Z,7.07
2023-04-06T05:36:25.734Z,7.67
2023-04-06T05:39:13.347Z,7.27
2023-04-06T05:42:03.480Z,8.63
2023-04-06T05:44:51.037Z,8.37
2023-04-06T05:47:39.142Z,8.40
2023-04-06T05:50:26.645Z,8.80
2023-04-06T05:53:14.026Z,9.03
2023-04-06T05:56:04.827Z,9.07
2023-04-06T05:58:52.270Z,9.10
2023-04-06T06:01:39.894Z,9.97
2023-04-06T06:04:27.318Z,9.13
2023-04-06T06:07:15.598Z,10.03
2023-04-06T06:10:03.008Z,10.00
2023-04-06T06:12:50.540Z,10.37
2023-04-06T06:15:37.929Z,10.10
2023-04-06T06:18:25.315Z,9.73
2023-04-06T06:21:13.321Z,9.17
2023-04-06T06:24:00.846Z,10.57
2023-04-06T06:26:49.782Z,10.17
2023-04-06T06:29:37.188Z,10.87
2023-04-06T06:32:24.712Z,10.40
2023-04-06T06:35:12.166Z,9.83
2023-04-06T06:37:59.567Z,10.80
2023-04-06T06:40:48.079Z,9.33
2023-04-06T06:43:35.664Z,10.93
2023-04-06T06:46:23.128Z,11.40
2023-04-06T06:49:13.110Z,11.17
2023-04-06T06:52:00.605Z,11.13
2023-04-06T06:54:48.035Z,11.30
2023-04-06T06:57:35.426Z,11.03
2023-04-06T07:00:23.066Z,10.27
2023-04-06T07:03:10.585Z,11.43
2023-04-06T07:05:58.321Z,10.40
2023-04-06T07:08:45.814Z,10.47
2023-04-06T07:11:33.277Z,10.50
2023-04-06T07:14:20.830Z,10.40
2023-04-06T07:17:08.524Z,9.43
2023-04-06T07:19:56.049Z,9.40
2023-04-06T07:22:45.515Z,8.67
2023-04-06T07:25:32.950Z,9.07
2023-04-06T07:28:20.503Z,9.27
2023-04-06T07:31:07.860Z,10.03
2023-04-06T07:33:55.589Z,9.17
2023-04-06T07:36:43.102Z,8.80
2023-04-06T07:39:30.551Z,8.23
2023-04-06T07:42:18.048Z,9.50
2023-04-06T07:45:05.642Z,8.82
2023-04-06T07:47:53.055Z,8.37
2023-04-06T07:50:40.537Z,7.93
2023-04-06T07:53:27.907Z,8.68
2023-04-06T07:56:16.498Z,7.72
2023-04-06T07:59:03.989Z,7.68
2023-04-06T08:01:51.431Z,7.32
2023-04-06T08:04:38.821Z,7.93
2023-04-06T08:07:26.264Z,7.47
2023-04-06T08:10:13.680Z,7.07
2023-04-06T08:13:02.062Z,7.00
2023-04-06T08:15:49.513Z,6.78
2023-04-06T08:18:36.999Z,6.70
2023-04-06T08:21:24.455Z,6.85
2023-04-06T08:24:11.843Z,6.18
2023-04-06T08:26:59.310Z,6.15
2023-04-06T08:29:46.818Z,5.43
2023-04-06T08:32:34.426Z,5.90
2023-04-06T08:35:21.971Z,5.60
2023-04-06T08:38:09.404Z,4.57
2023-04-06T08:40:56.936Z,5.07
2023-04-06T08:43:45.362Z,4.47
2023-04-06T08:46:33.259Z,4.83
2023-04-06T08:49:20.886Z,3.87
2023-04-06T08:52:11.761Z,4.20
2023-04-06T08:54:59.202Z,3.43
2023-04-06T08:57:47.373Z,4.07
2023-04-06T09:00:35.218Z,3.83
2023-04-06T09:03:23.461Z,3.67
2023-04-06T09:06:12.079Z,3.85
2023-04-06T09:08:59.637Z,3.73
2023-04-06T09:11:48.244Z,3.53
2023-04-06T09:14:39.162Z,3.57
2023-04-06T09:17:27.279Z,3.77
2023-04-06T09:20:14.848Z,3.63
2023-04-06T09:23:02.362Z,3.63
2023-04-06T09:25:49.877Z,3.80
2023-04-06T09:29:04.399Z,4.10
2023-04-06T09:31:51.905Z,3.47
2023-04-06T09:34:42.290Z,3.47
2023-04-06T09:37:29.724Z,3.60
2023-04-06T09:40:18.531Z,3.20
2023-04-06T09:43:07.966Z,3.27
2023-04-06T09:45:56.557Z,3.13
2023-04-06T09:48:43.946Z,3.27
2023-04-06T09:51:39.892Z,3.10
2023-04-06T09:54:29.093Z,3.08
2023-04-06T09:57:39.256Z,2.63
2023-04-06T10:00:34.150Z,2.80
2023-04-06T10:03:39.209Z,3.07
2023-04-06T10:06:30.159Z,2.73
2023-04-06T10:09:17.740Z,2.70
2023-04-06T10:12:05.956Z,2.60
2023-04-06T10:14:53.451Z,2.73
2023-04-06T10:17:40.863Z,2.90
2023-04-06T10:20:51.542Z,3.37
2023-04-06T10:23:43.246Z,3.33
2023-04-06T10:26:31.029Z,2.70
2023-04-06T10:29:18.448Z,3.40
2023-04-06T10:32:05.948Z,3.17
2023-04-06T10:34:53.452Z,3.43
2023-04-06T10:37:59.507Z,2.87
2023-04-06T10:40:48.717Z,3.40
2023-04-06T10:43:37.389Z,3.40
2023-04-06T10:46:28.301Z,3.93
2023-04-06T10:49:15.783Z,3.93
2023-04-06T10:52:03.219Z,3.07
2023-04-06T10:54:51.260Z,4.30
2023-04-06T10:57:38.921Z,3.47
2023-04-06T11:00:36.013Z,3.70
2023-04-06T11:03:30.802Z,3.70
2023-04-06T11:06:25.192Z,3.93
2023-04-06T11:09:12.668Z,4.10
2023-04-06T11:12:00.135Z,4.47
2023-04-06T11:14:54.756Z,4.50
2023-04-06T11:17:42.415Z,4.40
2023-04-06T11:20:29.837Z,3.97
2023-04-06T11:23:24.130Z,3.83
2023-04-06T11:26:15.187Z,4.10
2023-04-06T11:29:02.879Z,4.60
2023-04-06T11:31:52.571Z,4.63
2023-04-06T11:34:41.950Z,4.67
2023-04-06T11:37:29.399Z,4.30
2023-04-06T11:40:16.859Z,4.83
2023-04-06T11:43:05.820Z,4.27
2023-04-06T11:46:01.382Z,4.03
2023-04-06T11:48:48.849Z,3.97
2023-04-06T11:51:39.254Z,4.77
2023-04-06T11:54:36.435Z,4.93
2023-04-06T11:57:26.235Z,5.50
2023-04-06T12:00:14.012Z,4.93
2023-04-06T12:03:01.733Z,6.03
2023-04-06T12:05:50.428Z,5.10
2023-04-06T12:08:38.015Z,5.73
2023-04-06T12:11:25.666Z,5.47
2023-04-06T12:14:13.788Z,5.60
2023-04-06T12:17:01.912Z,5.80
2023-04-06T12:19:49.384Z,5.67
2023-04-06T12:22:37.326Z,5.87
2023-04-06T12:25:24.797Z,6.13
2023-04-06T12:28:12.329Z,6.73
2023-04-06T12:30:59.788Z,5.97
2023-04-06T12:33:51.088Z,6.07
2023-04-06T12:36:39.634Z,6.00
2023-04-06T12:39:28.658Z,6.30
2023-04-06T12:42:16.742Z,6.10
2023-04-06T12:45:04.276Z,6.53
2023-04-06T12:47:52.295Z,6.20
2023-04-06T12:50:39.744Z,6.27
2023-04-06T12:53:27.177Z,6.00
2023-04-06T12:56:15.481Z,5.83
2023-04-06T12:59:02.941Z,5.53
2023-04-06T13:01:50.543Z,6.00
2023-04-06T13:04:37.972Z,6.03
2023-04-06T13:07:25.421Z,5.77
2023-04-06T13:10:12.807Z,5.93
2023-04-06T13:13:00.922Z,6.00
2023-04-06T13:15:48.328Z,6.23
2023-04-06T13:18:37.677Z,6.10
2023-04-06T13:21:25.820Z,5.50
2023-04-06T13:24:14.448Z,5.83
2023-04-06T13:27:03.681Z,5.83
2023-04-06T13:29:51.382Z,5.33
2023-04-06T13:32:38.765Z,5.57
2023-04-06T13:35:26.574Z,5.53
2023-04-06T13:38:14.233Z,5.60
2023-04-06T13:41:01.692Z,5.57
2023-04-06T13:43:49.228Z,5.37
2023-04-06T13:46:36.906Z,5.30
2023-04-06T13:49:24.298Z,6.20
2023-04-06T13:52:11.736Z,5.83
2023-04-06T13:54:59.069Z,5.67
2023-04-06T13:57:46.445Z,5.63
2023-04-06T14:00:33.918Z,5.80
2023-04-06T14:03:21.769Z,5.30
2023-04-06T14:06:26.870Z,6.00
2023-04-06T14:09:17.541Z,5.60
2023-04-06T14:12:04.991Z,5.90
2023-04-06T14:14:52.382Z,5.73
2023-04-06T14:17:40.639Z,5.83
2023-04-06T14:20:28.112Z,5.73
2023-04-06T14:23:15.459Z,5.97
2023-04-06T14:26:06.388Z,5.97
2023-04-06T14:28:53.824Z,5.77
2023-04-06T14:31:41.180Z,6.00
2023-04-06T14:34:28.712Z,5.30
2023-04-06T14:37:17.427Z,5.67
2023-04-06T14:40:05.090Z,5.73
2023-04-06T14:42:52.643Z,5.60
2023-04-06T14:45:40.287Z,5.83
2023-04-06T14:48:27.745Z,5.77
2023-04-06T14:51:15.207Z,4.90
2023-04-06T14:54:05.961Z,5.33
2023-04-06T14:56:53.322Z,5.97
2023-04-06T14:59:40.774Z,7.07
2023-04-06T15:02:28.304Z,5.90
2023-04-06T15:05:16.025Z,6.40
2023-04-06T15:08:04.615Z,6.00
2023-04-06T15:10:52.357Z,6.40
2023-04-06T15:13:40.739Z,5.53
2023-04-06T15:16:28.161Z,6.00
2023-04-06T15:19:15.596Z,5.83
2023-04-06T15:22:02.966Z,6.07
2023-04-06T15:24:50.533Z,5.23
2023-04-06T15:27:37.875Z,5.47
2023-04-06T15:30:25.317Z,6.20
2023-04-06T15:33:12.831Z,5.50
2023-04-06T15:36:00.348Z,5.73
2023-04-06T15:38:47.769Z,6.10
2023-04-06T15:41:35.483Z,6.00
2023-04-06T15:44:23.194Z,5.60
2023-04-06T15:47:10.574Z,5.93
2023-04-06T15:49:57.932Z,6.10
2023-04-06T15:52:45.406Z,6.20
2023-04-06T15:55:32.906Z,5.87
2023-04-06T15:58:20.300Z,5.70
2023-04-06T16:01:14.107Z,6.50
2023-04-06T16:04:02.487Z,6.40
2023-04-06T16:06:50.550Z,5.93
2023-04-06T16:09:37.882Z,5.87
2023-04-06T16:12:27.181Z,6.13
2023-04-06T16:15:15.236Z,5.60
2023-04-06T16:18:04.066Z,5.60
2023-04-06T16:20:51.452Z,5.70
2023-04-06T16:23:38.860Z,5.70
2023-04-06T16:26:27.065Z,5.63
2023-04-06T16:29:31.756Z,5.67
2023-04-06T16:32:19.151Z,5.73
2023-04-06T16:35:06.793Z,5.67
2023-04-06T16:37:59.870Z,5.57
2023-04-06T16:40:47.275Z,5.90
2023-04-06T16:43:34.750Z,5.40
2023-04-06T16:46:22.254Z,5.60
2023-04-06T16:49:09.649Z,5.80
2023-04-06T16:52:01.802Z,5.70
2023-04-06T16:54:50.156Z,5.70
2023-04-06T16:57:38.530Z,5.10
2023-04-06T17:00:25.958Z,5.23
2023-04-06T17:03:13.492Z,5.43
2023-04-06T17:06:01.179Z,5.67
2023-04-06T17:08:49.220Z,5.10
2023-04-06T17:11:46.032Z,4.90
2023-04-06T17:14:33.800Z,5.53
2023-04-06T17:17:21.464Z,5.20
2023-04-06T17:20:09.325Z,4.93
2023-04-06T17:22:56.678Z,5.27
2023-04-06T17:25:44.163Z,5.20
2023-04-06T17:28:31.620Z,6.17
2023-04-06T17:31:36.896Z,5.20
2023-04-06T17:34:24.376Z,5.43
2023-04-06T17:37:12.259Z,5.30
2023-04-06T17:39:59.816Z,5.40
2023-04-06T17:42:47.222Z,5.67
2023-04-06T17:45:34.716Z,6.17
2023-04-06T17:48:22.100Z,6.20
2023-04-06T17:51:09.550Z,7.20
2023-04-06T17:53:57.170Z,7.77
2023-04-06T17:56:55.201Z,7.80
2023-04-06T17:59:43.994Z,7.10
2023-04-06T18:02:33.564Z,6.17
2023-04-06T18:05:21.564Z,5.97
2023-04-06T18:08:08.956Z,6.73
2023-04-06T18:10:56.356Z,6.03
2023-04-06T18:17:12.644Z,5.90
2023-04-06T18:20:00.334Z,6.17
2023-04-06T18:22:47.769Z,6.33
2023-04-06T18:25:38.483Z,6.37
2023-04-06T18:28:25.870Z,6.37
2023-04-06T18:31:13.374Z,6.33
2023-04-06T18:34:01.708Z,6.77
2023-04-06T18:36:49.479Z,6.83
2023-04-06T18:39:36.870Z,6.83
2023-04-06T18:42:24.324Z,5.90
2023-04-06T18:45:11.933Z,5.70
2023-04-06T18:47:59.511Z,6.50
2023-04-06T18:51:03.213Z,6.50
2023-04-06T18:53:50.695Z,6.40
2023-04-06T18:56:38.865Z,6.90
2023-04-06T18:59:30.306Z,6.30
2023-04-06T19:02:17.817Z,7.10
2023-04-06T19:05:06.165Z,7.70
2023-04-06T19:07:56.045Z,6.90
2023-04-06T19:10:43.450Z,6.77
2023-04-06T19:13:30.826Z,7.77
2023-04-06T19:16:19.093Z,6.70
2023-04-06T19:19:06.567Z,5.90
2023-04-06T19:21:53.919Z,6.53
2023-04-06T19:24:44.912Z,5.80
2023-04-06T19:27:32.250Z,6.00
2023-04-06T19:30:20.102Z,6.00
2023-04-06T19:33:12.441Z,6.27
2023-04-06T19:35:59.865Z,5.90
2023-04-06T19:38:47.337Z,5.77
2023-04-06T19:41:34.687Z,5.97
2023-04-06T19:44:22.031Z,6.50
2023-04-06T19:47:11.739Z,5.80
2023-04-06T19:49:59.110Z,6.10
2023-04-06T19:52:46.554Z,6.53
2023-04-06T19:55:33.919Z,6.87
2023-04-06T19:58:21.558Z,6.07
2023-04-06T20:01:09.047Z,6.33
2023-04-06T20:03:56.794Z,6.30
2023-04-06T20:06:44.251Z,6.13
2023-04-06T20:09:31.864Z,6.30
2023-04-06T20:12:19.267Z,6.93
2023-04-06T20:15:06.846Z,6.50
2023-04-06T20:17:54.943Z,6.00
2023-04-06T20:20:42.502Z,6.90
2023-04-06T20:23:30.005Z,6.17
2023-04-06T20:26:17.567Z,6.83
2023-04-06T20:29:05.299Z,6.30
2023-04-06T20:31:53.381Z,6.10
2023-04-06T20:34:40.941Z,6.53
2023-04-06T20:37:28.681Z,5.93
2023-04-06T20:40:16.278Z,6.00
2023-04-06T20:43:05.534Z,5.97
2023-04-06T20:45:53.333Z,6.63
2023-04-06T20:48:41.129Z,6.17
2023-04-06T20:51:29.446Z,6.17
2023-04-06T20:54:17.576Z,6.33
2023-04-06T20:57:04.994Z,6.10
2023-04-06T20:59:52.678Z,5.70
2023-04-06T21:02:41.001Z,6.47
2023-04-06T21:05:28.620Z,7.27
2023-04-06T21:08:16.145Z,6.47
2023-04-06T21:11:04.445Z,6.20
2023-04-06T21:13:51.804Z,6.23
2023-04-06T21:16:40.369Z,6.73
2023-04-06T21:19:27.772Z,6.57
2023-04-06T21:22:15.206Z,7.77
2023-04-06T21:25:02.561Z,6.23
2023-04-06T21:27:51.718Z,6.70
2023-04-06T21:30:39.155Z,6.97
2023-04-06T21:33:26.496Z,6.70
2023-04-06T21:36:13.919Z,6.60
2023-04-06T21:39:02.483Z,6.80
2023-04-06T21:41:49.915Z,6.83
2023-04-06T21:44:37.362Z,7.27
2023-04-06T21:47:24.712Z,7.50
2023-04-06T21:50:12.113Z,7.83
2023-04-06T21:52:59.482Z,7.27
2023-04-06T21:55:47.388Z,6.80
2023-04-06T21:58:34.742Z,6.97
2023-04-06T22:01:22.195Z,7.87
2023-04-06T22:04:09.771Z,7.73
2023-04-06T22:06:57.334Z,7.47
2023-04-06T22:09:50.326Z,7.77
2023-04-06T22:12:38.766Z,7.40
2023-04-06T22:15:27.159Z,7.50
2023-04-06T22:18:14.588Z,7.63
2023-04-06T22:21:03.531Z,8.40
2023-04-06T22:23:51.268Z,7.13
2023-04-06T22:26:38.621Z,8.07
2023-04-06T22:29:25.997Z,7.60
2023-04-06T22:32:13.433Z,7.37
2023-04-06T22:35:00.929Z,7.47
2023-04-06T22:37:48.277Z,7.30
2023-04-06T22:40:35.630Z,6.70
2023-04-06T22:43:23.009Z,7.00
2023-04-06T22:46:10.424Z,7.03
2023-04-06T22:48:57.824Z,6.17
2023-04-06T22:51:45.271Z,6.60
2023-04-06T22:54:32.667Z,6.73
2023-04-06T22:57:22.378Z,7.10
2023-04-06T23:00:10.191Z,6.83
2023-04-06T23:02:57.865Z,6.40
2023-04-06T23:05:47.504Z,6.63
2023-04-06T23:08:34.853Z,6.60
2023-04-06T23:11:22.326Z,6.77
2023-04-06T23:14:09.773Z,6.53
2023-04-06T23:16:57.172Z,6.30
2023-04-06T23:19:44.561Z,6.03
2023-04-06T23:22:31.945Z,6.87
2023-04-06T23:25:19.405Z,6.23
2023-04-06T23:28:06.792Z,6.30
2023-04-06T23:30:54.217Z,5.43
2023-04-06T23:33:41.648Z,5.77
2023-04-06T23:36:29.097Z,5.47
2023-04-06T23:39:16.589Z,5.00
2023-04-06T23:42:03.998Z,5.10
2023-04-06T23:44:51.411Z,4.83
2023-04-06T23:47:38.858Z,4.43
2023-04-06T23:50:26.360Z,5.37
2023-04-06T23:53:13.775Z,4.73
2023-04-06T23:56:01.323Z,4.67
2023-04-06T23:58:48.675Z,4.53
